6NC9 weather

Moss Hill Airport
Kinston, North Carolina, United States

Public forecast

Using degrees Fahrenheit for public forecast. Weather courtesy of forecast.io.

Closest aviation weather report (METAR) to Moss Hill Airport

Closest report is Kinston Regional Jetport At Stallings Field, 10.4 nm (19.3 km) NE. Retrieved 2020/07/16 04:35 UTC (6 minutes ago):

KISO 160435Z AUTO 09003KT 10SM CLR 25/22 A3016 RMK AO2 T02480216

Closest aviation forecast (TAF) to Moss Hill Airport

Closest forecast is Kinston Regional Jetport At Stallings Field, 10.4 nm (19.3 km) NE. Retrieved 2020-07-16 00:22 UTC (4 hours ago):

TAF KISO 152320Z 1600/1624 13005KT P6SM FEW060 FM160600 00000KT P6SM SCT035 FM161400 09004KT P6SM FEW040 AMD LTD TO CLD VIS AND WIND